Sturgeon Bay, WI (54235)

6:27 PM CDT on August 03, 2015 (GMT -0500)
APRSWXNET | | Change Station
CLOSE
Current Station
Personal Weather Station
Location: Sturgeon Bay, WI
Elevation: 597 ft
Nearby Weather Stations

Elev 597 ft 44.83 °N, 87.36 °W | Updated 18 minutes ago

Mostly Cloudy
Mostly Cloudy
74 °F
Feels Like 77 °F
N
6
Wind Variable Wind from North
Gusts 12.0 mph

Today
High -- | Low -- °F
--% Chance of Precip.
Yesterday
High -- | Low -- °F
Precip. -- in
5:37 AM 8:13 PM
Waning Gibbous, 83% visible
Pressure 29.82 in
Visibility 10.0 miles
Clouds Mostly Cloudy 8500 ft
Heat Index 77 °F
Dew Point 54 °F
Humidity 49%
Rainfall in
Snow Depth Not available.
UV 1 out of 12
Pollen 7.80 out of 12
Air Quality Not available.
Flu Activity Not available.
METAR KSUE 032315Z AUTO 31008G14KT 10SM BKN085 22/12 A2982 RMK AO1

More Conditions Fewer Conditions

Pressure 29.82 in
Visibility 10.0 miles
Clouds Mostly Cloudy 8500 ft
Heat Index 77 °F
Dew Point 54 °F
Humidity 49%
Rainfall in
Snow Depth Not available.
UV 1 out of 12
Pollen 7.80 out of 12
Air Quality Not available.
Flu Activity Not available.
METAR KSUE 032315Z AUTO 31008G14KT 10SM BKN085 22/12 A2982 RMK AO1

More Conditions Fewer Conditions

10-Day Weather Forecast

×

Almanac

Astronomy

Aug. 03, 2015 Rise Set
Actual Time
Civil Twilight
Nautical Twilight
Astronomical Twilight
Moon
Length of Visible Light
Length of Day
Tomorrow will be .
, % of the Moon is Illuminated

Today's Extremes

State Highs State Lows

Community

WunderPhotos

Upload Photos

1,843,786 photos uploaded!

WunderBlogs® & News

Nearby

Air Quality

  Air Quality AQ Index Pollutant
Not available.

Snow Depth

Station Depth Elevation

Earthquake Activity

City Distance Mag. Time & Date
Minimum magnitude displayed is 2.5.

Coastal Water Temperatures

Place Temperature

Stations

Nearby Weather Stations

Station Location Temp. Windchill Dew Point Humidity Wind Precip. Elev Updated Type